AirNav   ProFlight Series 2 Aviation Headset
 
 807 users online  

KJPN Pentagon Army Heliport
Washington, District of Columbia, USA

GOING TO WASHINGTON?


FAA INFORMATION EFFECTIVE 08 OCTOBER 2020

Location

FAA Identifier: JPN
Lat/Long: 38-52-26.6000N 077-03-27.0000W
38-52.443333N 077-03.450000W
38.8740556,-77.0575000
(estimated)
Elevation: 40 ft. / 12 m (estimated)
Variation: 09W (1985)
From city: 2 miles SW of WASHINGTON, DC
(HELIPAD PHYSICALLY LCTD ON W SIDE OF PENTAGON BLDG.)
Time zone: UTC -4 (UTC -5 during Standard Time)
Zip code: 22211

Heliport Operations

Heliport use: Private use. Permission required prior to landing
Control tower: yes
ARTCC: WASHINGTON CENTER
FSS: LEESBURG FLIGHT SERVICE STATION
Attendance: MON-FRI 1200-2000Z++
24 HR PPR V227-9250/225-4374.
Segmented circle: no

Heliport Communications

PENTAGON TOWER: 143.1 231.3 [1230-2230Z++MON-FRI; 24 HRS PPR.]
EMERG: 121.5 243.0
WX ASOS at DCA (1.6 nm SE): 132.65 (703-412-8140)
WX AWOS-3 at CGS (9 nm NE): 121.225 (301-864-5497)
WX AWOS-3PT at GAI (18 nm N): 128.275 (301-977-2971)
WX AWOS-3 at FME (19 nm NE): 123.925
WX ASOS at IAD (19 nm W): PHONE 703-661-2990
  • CLSD WKEND & HOL. CDN FOR TIER I/II PSGRS OFFL BUS OPS AT OTR TIMES RQRS APVL FM THE EXEC TIME TVL OFC C703-535-1262/1263.

Nearby radio navigation aids

VOR radial/distance  VOR name  Freq  Var
DCAr321/1.3WASHINGTON VOR/DME111.0009W
ADWr304/9.8ANDREWS VORTAC113.1010W
OTTr315/17.8NOTTINGHAM VORTAC113.7010W
AMLr109/19.4ARMEL VOR/DME113.5008W
BALr237/25.7BALTIMORE VORTAC115.1011W
BRVr032/35.1BROOKE VORTAC114.5009W
FDKr163/(35.5)FREDERICK VOR109.0008W
EMIr194/37.4WESTMINSTER VORTAC117.9008W

 
NDB name  Hdg/Dist  Freq  Var  ID
GEORGETOWN146/4.632309WGTN --. - -.
OXONN359/6.633211WDCA -.. -.-. .-
DAVEE020/13.022309WDAA -.. .- .-
ELLICOTT219/28.037111WFND ..-. -. -..

Heliport Services

Runway Information

Helipad H1

Dimensions: 82 x 82 ft. / 25 x 25 m
HELIPAD DIMENSIONS UNKNOWN.
PAD IS 131 FT ACROSS AND PENTAGON SHAPED. MEASUREMENT IS APPROXIMATE.
Surface: asphalt
Runway edge lights: PERI
Latitude: 38-52.443333N
Longitude: 077-03.450000W
Elevation: 40.0 ft.
Traffic pattern: leftleft

Heliport Ownership and Management from official FAA records

Ownership: U.S. Army
Owner: U.S.ARMY ATCA-ASO
CAMERON STA
ALEXANDRIA, VA 22314
Manager: Phone 703-664-1201

Additional Remarks

OPR 1300-2100Z MON-FRI; CTC OIC C697-9250/695-4374; V227-9250/225-4374; PRK RSTD TO CTL DISCRETION.
C203-695-2776; 203-697-3658/697-8703; V225-2776/227-3658/227-8703. APVL LTD.
SPECIAL PRO TFC PAT. WHEN LDG WEST ALL ARRIVALS ARE EXPECTED TO MAKE LEFT TFC CIRCLING THE PENTAGON AT OR BELOW 200 FT.
FOR CD CTC POTOMAC APCH AT 866-599-3874.
SPECIAL PRO; TFC PAT AND OPR RULES EXIST DUE TO WASHINGTON TCA; PRK; NOISE; FLT PLAN COORDINATION AND VISUAL RTE RSTRNS.
SPECIAL VFR PERMITTED ONLY WHEN WASH NATL PAT CEIL/VIS IS 700 & 1 OR BETTER.
ACFT COMDR MUST HAVE RCV A RTE BRIEFING AND OPR WITH SPECIAL RTE CHART DTD 1 OCT 79; CONTAINING SPECIAL RTE AND JPN TFC PAT.
TRANS PILOTS BRIEFING ARE CONDUCTED AT DAVISON AAF, QUANTICO MCAS, ANDREWS AFB OR TIPTON AAF.
ADVN 24 HOUR FLT INFO WILL BE PASSED TO THE CTC OIC (PENTAGON HELIPORT) PRIOR TO FLT TO INCLUDE:
ARMY COPTER PPR IS PQR FOR CODE 6 OR BELOW. CTC DIR ARMY STAFF (EXECUTIVE SVC);
AFTER DUTY HOURS; CTC MILITARY DISTRICT OF WASHINGTON STAFF DUTY OFFICER (2 HOURS PPR) C202-693-1069/693-1193 OR V223-1193/223-1069.
DATE & TIME OF TKOF/LDG DEP/DESTN; TYPE OF ACFT/NR OF COPTERS INVOLVED; NAME/GRADE SENIOR PERSONS AND NR OF ADDN PAX; PT OF CTC NADE AND FONE NR.

Instrument Procedures

There are no published instrument procedures at KJPN.

Some nearby airports with instrument procedures:

KDCA - Ronald Reagan Washington National Airport (2 nm SE)
KVKX - Potomac Airfield (9 nm SE)
KCGS - College Park Airport (9 nm NE)
W32 - Washington Executive Airport/Hyde Field (10 nm SE)
KADW - Joint Base Andrews (10 nm SE)
KDAA - Davison Army Airfield (11 nm SW)
W00 - Freeway Airport (14 nm E)
2W5 - Maryland Airport (17 nm S)
KGAI - Montgomery County Airpark (18 nm N)
KFME - Tipton Airport (19 nm NE)
 
Loc | Ops | Rwys | IFR | FBO | Links
Com | Nav | Svcs | Stats | Notes
Area around KJPN (Pentagon Army Heliport)
 
Road maps at: MapQuest Bing Google
 
Aerial photo
No photo
 
Sectional chart

 
Airport distance calculator
Flying to Pentagon Army Heliport? Find the distance to fly.

From to KJPN

Sunrise and sunset
Times for 22-Oct-2020
 Local
(UTC-4)
 Zulu
(UTC)
Morning civil twilight07:0011:00
Sunrise07:2711:27
Sunset18:1822:18
Evening civil twilight18:4622:46

Current date and time
Zulu (UTC)  22-Oct-2020 12:05:30
Local (UTC-4)  22-Oct-2020 08:05:30
 
METAR
KDCA 
2nm SE 
221152Z 06004KT 1/8SM R01/2600V5000FT FG VV003 17/17 A3023 RMK AO2 SLP237 T01670167 10183 20156 53007
KCGS 
9nm NE 
221155Z AUTO 00000KT 3/4SM OVC003 15/14 A3023 RMK AO1 T01470136 10147 20135
KADW 
10nm E 
221156Z 00000KT 1/4SM R19R/2000V3000FT FG VV001 14/14 A3023 RMK AO2A CIG 000 RWY19L SLP243 T01420142 10173 20125 52007 FZRANO $
KDAA 
11nm SW 
221156Z AUTO 00000KT 1/8SM R32/1600V2400FT FG VV001 15/15 A3023 RMK AO2 SLP240 T01530148 10153 20140 52009 $
KGAI 
18nm N 
221156Z AUTO 00000KT 1/4SM FG OVC001 14/14 A3024 RMK AO2 SLP254 P0001 60001 70001 T01440139 10161 20133 53006
KFME 
18nm NE 
221155Z AUTO 00000KT 1/4SM OVC001 14/14 A3026 RMK AO1
KIAD 
19nm W 
221152Z 00000KT 1/8SM R01R/2000V4000FT FG VV001 17/17 A3023 RMK AO2 SLP234 T01670167 10178 20150 53008
TAF
KDCA 
2nm SE 
221136Z 2212/2318 06005KT 1/2SM FG OVC003 FM221500 00000KT 5SM BR SCT030 FM221900 15005KT P6SM SKC FM230600 VRB03KT 6SM BR OVC003 FM231200 VRB03KT 1SM BR OVC008 FM231500 15004KT 6SM BR OVC025
KADW 
10nm E 
220900Z 2209/2315 22004KT 0400 FG VV001 QNH3022INS TEMPO 2209/2213 0800 FG VV002 BECMG 2212/2213 VRB03KT 0800 FG OVC002 QNH3025INS BECMG 2213/2214 VRB03KT 3200 BR OVC004 QNH3026INS BECMG 2214/2215 12004KT 9999 NSW BKN006 QNH3026INS BECMG 2215/2216 11005KT 9999 SCT030 SCT250 QNH3020INS BECMG 2222/2223 14004KT 9999 FEW002 FEW250 QNH3022INS BECMG 2308/2309 14003KT 3200 BR OVC002 QNH3022INS BECMG 2309/2310 14003KT 0400 FG VV001 QNH3022INS TEMPO 2310/2313 0800 FG VV002 BECMG 2313/2314 13004KT 1600 BR
KDAA 
11nm SW 
221200Z 2212/2318 VRB02KT 0800 FG OVC001 QNH3021INS BECMG 2213/2214 VRB03KT 3200 BR OVC005 QNH3023INS BECMG 2214/2215 12004KT 9999 NSW BKN007 QNH3025INS BECMG 2215/2216 13005KT 9999 SCT030 SCT250 QNH3020INS BECMG 2222/2223 VRB05KT 9999 FEW002 FEW250 QNH3021INS BECMG 2308/2309 VRB03KT 3200 BR OVC002 QNH3022INS BECMG 2309/2310 VRB03KT 0400 FG VV002 QNH3023INS BECMG 2313/2314 13004KT 3200 BR OVC004 QNH3024INS TX24/2220Z TN16/2311Z
KIAD 
19nm W 
220908Z 2209/2312 00000KT 1/4SM FG OVC001 FM221400 00000KT 1 1/2SM BR OVC003 FM221500 00000KT 4SM BR OVC005 FM221600 00000KT P6SM SCT060 FM230600 VRB03KT 3SM BR SCT010 FM230900 16004KT 1SM BR BKN008
NOTAMs
Click for the latest NOTAMs
NOTAMs are issued by the DoD/FAA and will open in a separate window not controlled by AirNav.

 

 
 

Would you like to see your business listed on this page?

 If your business provides an interesting product or service to pilots, flight crews, aircraft, or users of the Pentagon Army Heliport, you should consider listing it here.  To start the listing process, click on the button below
 
Add a business
 

Other Pages about Pentagon Army Heliport

Update a link
 
Copyright © AirNav, LLC. All rights reserved. Privacy Policy  Contact